createdAt,value
2023-02-22T00:00:43.004Z,10.00
2023-02-22T00:02:27.050Z,9.96
2023-02-22T00:03:58.612Z,9.93
2023-02-22T00:05:31.554Z,9.93
2023-02-22T00:07:03.053Z,9.85
2023-02-22T00:08:36.981Z,9.81
2023-02-22T00:10:13.336Z,9.80
2023-02-22T00:11:47.572Z,9.83
2023-02-22T00:13:19.735Z,9.88
2023-02-22T00:14:51.324Z,9.94
2023-02-22T00:16:23.671Z,9.99
2023-02-22T00:17:55.318Z,10.05
2023-02-22T00:19:28.121Z,10.13
2023-02-22T00:21:00.733Z,10.18
2023-02-22T00:22:32.370Z,10.20
2023-02-22T00:24:22.774Z,10.20
2023-02-22T00:25:54.868Z,10.18
2023-02-22T00:27:27.771Z,10.15
2023-02-22T00:28:59.310Z,10.14
2023-02-22T00:30:31.973Z,10.17
2023-02-22T00:32:04.034Z,10.17
2023-02-22T00:33:36.558Z,10.21
2023-02-22T00:35:08.838Z,10.22
2023-02-22T00:36:44.489Z,10.19
2023-02-22T00:38:18.531Z,10.18
2023-02-22T00:39:50.951Z,10.19
2023-02-22T00:41:22.609Z,10.20
2023-02-22T00:42:56.964Z,10.23
2023-02-22T00:44:28.506Z,10.28
2023-02-22T00:46:00.181Z,10.30
2023-02-22T00:47:31.877Z,10.32
2023-02-22T00:49:03.632Z,10.36
2023-02-22T00:50:35.560Z,10.37
2023-02-22T00:52:07.800Z,10.37
2023-02-22T00:53:39.310Z,10.38
2023-02-22T00:55:15.083Z,10.38
2023-02-22T00:56:46.973Z,10.32
2023-02-22T00:58:20.431Z,10.27
2023-02-22T00:59:51.992Z,10.21
2023-02-22T01:01:24.196Z,10.21
2023-02-22T01:02:56.893Z,10.21
2023-02-22T01:04:28.487Z,10.18
2023-02-22T01:06:00.034Z,10.15
2023-02-22T01:07:31.572Z,10.09
2023-02-22T01:09:04.113Z,10.06
2023-02-22T01:10:36.252Z,10.07
2023-02-22T01:12:08.173Z,10.11
2023-02-22T01:13:41.131Z,10.08
2023-02-22T01:15:12.877Z,10.01
2023-02-22T01:16:44.564Z,9.96
2023-02-22T01:18:17.375Z,9.93
2023-02-22T01:19:49.216Z,9.91
2023-02-22T01:21:22.367Z,9.91
2023-02-22T01:22:55.221Z,9.96
2023-02-22T01:24:27.412Z,9.99
2023-02-22T01:25:59.705Z,10.05
2023-02-22T01:27:31.206Z,10.07
2023-02-22T01:29:04.101Z,10.09
2023-02-22T01:30:36.403Z,10.14
2023-02-22T01:32:08.639Z,10.09
2023-02-22T01:33:40.286Z,10.07
2023-02-22T01:35:13.967Z,10.09
2023-02-22T01:36:45.528Z,10.14
2023-02-22T01:38:17.356Z,10.20
2023-02-22T01:39:48.888Z,10.21
2023-02-22T01:41:20.554Z,10.20
2023-02-22T01:42:53.469Z,10.17
2023-02-22T01:44:28.651Z,10.15
2023-02-22T01:46:01.741Z,10.12
2023-02-22T01:47:33.644Z,10.11
2023-02-22T01:49:10.276Z,10.08
2023-02-22T01:50:44.805Z,10.07
2023-02-22T01:52:19.334Z,10.11
2023-02-22T01:53:54.702Z,10.14
2023-02-22T01:55:26.839Z,10.17
2023-02-22T01:57:00.885Z,10.19
2023-02-22T01:58:33.731Z,10.20
2023-02-22T02:00:11.076Z,10.20
2023-02-22T02:01:45.322Z,10.16
2023-02-22T02:03:19.147Z,10.12
2023-02-22T02:04:51.599Z,10.09
2023-02-22T02:06:23.218Z,10.09
2023-02-22T02:07:54.785Z,10.08
2023-02-22T02:09:30.886Z,10.08
2023-02-22T02:11:04.023Z,10.07
2023-02-22T02:12:35.990Z,10.09
2023-02-22T02:14:08.267Z,10.09
2023-02-22T02:15:41.177Z,10.07
2023-02-22T02:17:15.197Z,10.07
2023-02-22T02:18:46.810Z,10.09
2023-02-22T02:20:22.401Z,10.10
2023-02-22T02:22:10.743Z,10.09
2023-02-22T02:23:52.529Z,10.10
2023-02-22T02:25:42.045Z,10.11
2023-02-22T02:27:16.638Z,10.11
2023-02-22T02:29:06.891Z,10.11
2023-02-22T02:30:48.864Z,10.14
2023-02-22T02:32:28.030Z,10.18
2023-02-22T02:34:02.677Z,10.22
2023-02-22T02:35:47.949Z,10.22
2023-02-22T02:37:21.981Z,10.23
2023-02-22T02:38:56.861Z,10.27
2023-02-22T02:40:33.427Z,10.28
2023-02-22T02:42:08.074Z,10.30
2023-02-22T02:43:42.363Z,10.32
2023-02-22T02:45:16.137Z,10.32
2023-02-22T02:46:50.849Z,10.30
2023-02-22T02:48:26.207Z,10.29
2023-02-22T02:50:00.059Z,10.25
2023-02-22T02:51:34.900Z,10.21
2023-02-22T02:53:08.759Z,10.21
2023-02-22T02:54:40.503Z,10.20
2023-02-22T02:56:12.485Z,10.22
2023-02-22T02:57:44.938Z,10.19
2023-02-22T02:59:24.453Z,10.11
2023-02-22T03:00:57.274Z,10.01
2023-02-22T03:02:35.882Z,9.89
2023-02-22T03:04:21.084Z,9.77
2023-02-22T03:06:02.267Z,9.68
2023-02-22T03:07:42.915Z,9.61
2023-02-22T03:09:20.369Z,9.61
2023-02-22T03:10:56.962Z,9.59
2023-02-22T03:12:35.843Z,9.53
2023-02-22T03:14:11.194Z,9.44
2023-02-22T03:15:48.578Z,9.39
2023-02-22T03:17:23.332Z,9.41
2023-02-22T03:18:56.441Z,9.42
2023-02-22T03:20:31.808Z,9.41
2023-02-22T03:22:10.524Z,9.35
2023-02-22T03:23:45.814Z,9.31
2023-02-22T03:25:19.921Z,9.27
2023-02-22T03:26:53.763Z,9.28
2023-02-22T03:28:26.437Z,9.24
2023-02-22T03:30:01.172Z,9.23
2023-02-22T03:31:37.260Z,9.21
2023-02-22T03:33:12.429Z,9.17
2023-02-22T03:34:47.463Z,9.16
2023-02-22T03:36:24.899Z,9.16
2023-02-22T03:38:00.400Z,9.15
2023-02-22T03:39:33.905Z,9.13
2023-02-22T03:41:07.795Z,9.15
2023-02-22T03:42:40.905Z,9.14
2023-02-22T03:44:14.995Z,9.11
2023-02-22T03:45:48.833Z,9.10
2023-02-22T03:47:24.643Z,9.08
2023-02-22T03:49:00.471Z,9.06
2023-02-22T03:50:37.988Z,8.99
2023-02-22T03:52:12.852Z,9.00
2023-02-22T03:53:45.243Z,8.99
2023-02-22T03:55:17.767Z,9.02
2023-02-22T03:56:50.868Z,9.01
2023-02-22T03:58:27.039Z,9.00
2023-02-22T03:59:58.766Z,9.00
2023-02-22T04:01:30.645Z,8.97
2023-02-22T04:03:02.310Z,8.91
2023-02-22T04:04:33.977Z,8.83
2023-02-22T04:06:05.923Z,8.77
2023-02-22T04:07:38.951Z,8.73
2023-02-22T04:09:10.780Z,8.68
2023-02-22T04:10:44.214Z,8.61
2023-02-22T04:12:15.816Z,8.54
2023-02-22T04:13:59.030Z,8.52
2023-02-22T04:15:30.576Z,8.51
2023-02-22T04:17:10.517Z,8.48
2023-02-22T04:18:42.082Z,8.44
2023-02-22T04:20:13.963Z,8.43
2023-02-22T04:21:52.038Z,8.43
2023-02-22T04:23:28.784Z,8.45
2023-02-22T04:25:00.442Z,8.46
2023-02-22T04:26:32.599Z,8.46
2023-02-22T04:28:06.318Z,8.47
2023-02-22T04:29:58.237Z,8.48
2023-02-22T04:31:29.855Z,8.50
2023-02-22T04:33:03.352Z,8.49
2023-02-22T04:34:35.215Z,8.49
2023-02-22T04:36:07.659Z,8.48
2023-02-22T04:37:40.182Z,8.45
2023-02-22T04:39:13.941Z,8.43
2023-02-22T04:40:45.526Z,8.41
2023-02-22T04:42:17.087Z,8.37
2023-02-22T04:43:48.793Z,8.36
2023-02-22T04:45:23.449Z,8.35
2023-02-22T04:46:56.632Z,8.34
2023-02-22T04:48:28.185Z,8.31
2023-02-22T04:50:00.417Z,8.31
2023-02-22T04:51:32.151Z,8.31
2023-02-22T04:53:06.308Z,8.31
2023-02-22T04:54:40.712Z,8.32
2023-02-22T04:56:12.268Z,8.33
2023-02-22T04:57:43.922Z,8.38
2023-02-22T04:59:16.178Z,8.41
2023-02-22T05:00:56.768Z,8.40
2023-02-22T05:02:28.545Z,8.41
2023-02-22T05:04:01.563Z,8.39
2023-02-22T05:05:33.107Z,8.39
2023-02-22T05:07:04.845Z,8.41
2023-02-22T05:08:36.485Z,8.40
2023-02-22T05:10:09.682Z,8.42
2023-02-22T05:11:41.170Z,8.43
2023-02-22T05:13:12.729Z,8.44
2023-02-22T05:14:44.552Z,8.43
2023-02-22T05:16:16.371Z,8.43
2023-02-22T05:17:49.008Z,8.46
2023-02-22T05:19:20.583Z,8.45
2023-02-22T05:20:52.531Z,8.48
2023-02-22T05:22:24.484Z,8.47
2023-02-22T05:23:56.009Z,8.49
2023-02-22T05:25:29.297Z,8.49
2023-02-22T05:27:00.866Z,8.51
2023-02-22T05:28:32.714Z,8.52
2023-02-22T05:30:04.527Z,8.53
2023-02-22T05:31:36.157Z,8.53
2023-02-22T05:33:10.858Z,8.57
2023-02-22T05:34:42.474Z,8.53
2023-02-22T05:36:14.063Z,8.54
2023-02-22T05:37:45.624Z,8.60
2023-02-22T05:39:17.199Z,8.67
2023-02-22T05:40:50.246Z,8.73
2023-02-22T05:42:22.073Z,8.78
2023-02-22T05:43:53.580Z,8.79
2023-02-22T05:45:26.675Z,8.82
2023-02-22T05:46:58.346Z,8.88
2023-02-22T05:48:31.017Z,8.88
2023-02-22T05:50:02.587Z,8.88
2023-02-22T05:51:34.143Z,8.90
2023-02-22T05:53:05.716Z,8.92
2023-02-22T05:54:37.265Z,8.92
2023-02-22T05:56:10.247Z,8.94
2023-02-22T05:57:41.850Z,8.97
2023-02-22T05:59:13.456Z,8.93
2023-02-22T06:00:44.994Z,8.91
2023-02-22T06:02:16.848Z,8.91
2023-02-22T06:03:48.722Z,8.92
2023-02-22T06:05:20.348Z,8.93
2023-02-22T06:06:51.888Z,8.94
2023-02-22T06:08:23.562Z,8.92
2023-02-22T06:09:55.052Z,8.96
2023-02-22T06:11:27.969Z,8.96
2023-02-22T06:13:00.119Z,8.99
2023-02-22T06:14:31.679Z,9.01
2023-02-22T06:16:03.256Z,9.01
2023-02-22T06:17:34.850Z,9.06
2023-02-22T06:19:06.440Z,9.11
2023-02-22T06:20:38.264Z,9.13
2023-02-22T06:22:15.659Z,9.13
2023-02-22T06:23:47.425Z,9.04
2023-02-22T06:25:20.651Z,9.04
2023-02-22T06:26:56.938Z,9.03
2023-02-22T06:28:28.512Z,9.02
2023-02-22T06:30:00.415Z,8.98
2023-02-22T06:31:32.124Z,8.97
2023-02-22T06:33:03.876Z,8.98
2023-02-22T06:34:35.617Z,8.97
2023-02-22T06:36:07.881Z,8.96
2023-02-22T06:37:39.793Z,8.92
2023-02-22T06:39:11.322Z,8.84
2023-02-22T06:40:42.806Z,8.83
2023-02-22T06:42:15.826Z,8.82
2023-02-22T06:43:47.439Z,8.84
2023-02-22T06:45:19.140Z,8.88
2023-02-22T06:46:51.290Z,8.90
2023-02-22T06:48:22.859Z,8.91
2023-02-22T06:49:54.451Z,8.90
2023-02-22T06:51:26.413Z,8.90
2023-02-22T06:52:58.506Z,8.90
2023-02-22T06:54:30.098Z,8.89
2023-02-22T06:56:02.231Z,8.93
2023-02-22T06:57:35.205Z,8.94
2023-02-22T06:59:06.885Z,8.97
2023-02-22T07:00:38.647Z,8.95
2023-02-22T07:02:10.645Z,8.93
2023-02-22T07:03:42.566Z,8.94
2023-02-22T07:05:15.385Z,8.90
2023-02-22T07:06:47.108Z,8.88
2023-02-22T07:08:18.717Z,8.87
2023-02-22T07:09:50.237Z,8.84
2023-02-22T07:11:21.859Z,8.83
2023-02-22T07:12:54.731Z,8.85
2023-02-22T07:14:26.375Z,8.86
2023-02-22T07:15:57.923Z,8.88
2023-02-22T07:17:29.583Z,8.94
2023-02-22T07:19:01.239Z,9.01
2023-02-22T07:20:33.340Z,9.02
2023-02-22T07:22:06.145Z,9.04
2023-02-22T07:23:37.887Z,9.02
2023-02-22T07:25:10.182Z,9.03
2023-02-22T07:26:42.194Z,9.03
2023-02-22T07:28:15.457Z,9.06
2023-02-22T07:29:46.991Z,9.07
2023-02-22T07:31:18.850Z,9.03
2023-02-22T07:32:50.899Z,9.00
2023-02-22T07:34:22.534Z,8.93
2023-02-22T07:35:54.065Z,8.98
2023-02-22T07:37:25.865Z,9.02
2023-02-22T07:38:57.385Z,9.05
2023-02-22T07:40:28.994Z,9.04
2023-02-22T07:42:00.718Z,9.03
2023-02-22T07:43:35.542Z,9.04
2023-02-22T07:45:08.457Z,9.00
2023-02-22T07:46:40.014Z,8.98
2023-02-22T07:48:12.622Z,8.99
2023-02-22T07:49:44.278Z,9.00
2023-02-22T07:51:16.786Z,9.00
2023-02-22T07:52:49.457Z,8.99
2023-02-22T07:54:21.077Z,8.99
2023-02-22T07:55:52.830Z,9.02
2023-02-22T07:57:24.465Z,9.03
2023-02-22T07:58:57.401Z,9.07
2023-02-22T08:00:31.020Z,9.08
2023-02-22T08:02:02.596Z,9.12
2023-02-22T08:03:36.882Z,9.09
2023-02-22T08:05:10.681Z,9.10
2023-02-22T08:06:46.270Z,9.13
2023-02-22T08:08:19.814Z,9.17
2023-02-22T08:09:51.528Z,9.22
2023-02-22T08:11:23.837Z,9.24
2023-02-22T08:12:55.950Z,9.30
2023-02-22T08:14:28.939Z,9.38
2023-02-22T08:16:00.534Z,9.43
2023-02-22T08:17:32.090Z,9.53
2023-02-22T08:19:03.626Z,9.62
2023-02-22T08:20:35.832Z,9.62
2023-02-22T08:22:07.384Z,9.67
2023-02-22T08:23:38.963Z,9.68
2023-02-22T08:25:10.665Z,9.72
2023-02-22T08:26:44.474Z,9.79
2023-02-22T08:28:19.904Z,9.83
2023-02-22T08:29:53.430Z,9.86
2023-02-22T08:31:25.099Z,9.85
2023-02-22T08:32:56.964Z,9.87
2023-02-22T08:34:28.730Z,9.84
2023-02-22T08:36:01.674Z,9.87
2023-02-22T08:37:33.422Z,9.92
2023-02-22T08:39:04.966Z,9.97
2023-02-22T08:40:37.399Z,10.03
2023-02-22T08:42:09.898Z,10.05
2023-02-22T08:43:41.535Z,10.10
2023-02-22T08:45:14.707Z,10.14
2023-02-22T08:46:46.206Z,10.19
2023-02-22T08:48:18.274Z,10.23
2023-02-22T08:49:49.885Z,10.22
2023-02-22T08:51:21.508Z,10.23
2023-02-22T08:52:53.897Z,10.25
2023-02-22T08:54:25.422Z,10.28
2023-02-22T08:55:56.971Z,10.29
2023-02-22T08:57:28.530Z,10.29
2023-02-22T08:59:00.135Z,10.32
2023-02-22T09:00:33.942Z,10.38
2023-02-22T09:02:05.856Z,10.43
2023-02-22T09:03:37.426Z,10.47
2023-02-22T09:05:09.249Z,10.49
2023-02-22T09:06:41.380Z,10.53
2023-02-22T09:08:13.040Z,10.56
2023-02-22T09:09:44.939Z,10.60
2023-02-22T09:11:16.750Z,10.67
2023-02-22T09:12:48.987Z,10.73
2023-02-22T09:14:20.631Z,10.81
2023-02-22T09:15:53.624Z,10.91
2023-02-22T09:17:25.220Z,10.94
2023-02-22T09:18:56.823Z,11.00
2023-02-22T09:20:28.674Z,11.04
2023-02-22T09:22:00.587Z,11.10
2023-02-22T09:23:32.312Z,11.13
2023-02-22T09:25:15.904Z,11.18
2023-02-22T09:26:53.360Z,11.24
2023-02-22T09:28:24.962Z,11.29
2023-02-22T09:29:59.304Z,11.37
2023-02-22T09:31:34.386Z,11.42
2023-02-22T09:33:07.060Z,11.49
2023-02-22T09:34:45.706Z,11.50
2023-02-22T09:36:17.555Z,11.56
2023-02-22T09:37:49.291Z,11.62
2023-02-22T09:39:21.699Z,11.69
2023-02-22T09:40:54.609Z,11.74
2023-02-22T09:42:33.574Z,11.84
2023-02-22T09:44:10.079Z,11.88
2023-02-22T09:45:48.294Z,11.94
2023-02-22T09:47:32.319Z,12.00
2023-02-22T09:49:07.078Z,12.06
2023-02-22T09:50:42.545Z,12.08
2023-02-22T09:52:18.667Z,12.06
2023-02-22T09:53:52.255Z,12.10
2023-02-22T09:55:29.013Z,12.09
2023-02-22T09:57:02.316Z,12.09
2023-02-22T09:58:35.712Z,12.12
2023-02-22T10:00:13.755Z,12.17
2023-02-22T10:01:48.792Z,12.21
2023-02-22T10:03:24.280Z,12.25
2023-02-22T10:05:00.411Z,12.29
2023-02-22T10:06:33.800Z,12.34
2023-02-22T10:08:06.080Z,12.41
2023-02-22T10:09:42.667Z,12.50
2023-02-22T10:11:19.498Z,12.65
2023-02-22T10:12:57.030Z,12.74
2023-02-22T10:14:38.838Z,12.81
2023-02-22T10:16:14.673Z,12.82
2023-02-22T10:17:50.085Z,12.83
2023-02-22T10:19:27.886Z,12.81
2023-02-22T10:21:03.597Z,12.87
2023-02-22T10:22:44.071Z,12.93
2023-02-22T10:24:23.600Z,13.00
2023-02-22T10:25:57.348Z,13.03
2023-02-22T10:27:34.162Z,13.08
2023-02-22T10:29:11.466Z,13.12
2023-02-22T10:30:49.306Z,13.19
2023-02-22T10:32:24.028Z,13.28
2023-02-22T10:33:58.707Z,13.37
2023-02-22T10:35:35.118Z,13.47
2023-02-22T10:37:17.165Z,13.57
2023-02-22T10:38:53.435Z,13.66
2023-02-22T10:40:32.232Z,13.72
2023-02-22T10:42:06.798Z,13.76
2023-02-22T10:43:38.901Z,13.81
2023-02-22T10:45:19.270Z,13.85
2023-02-22T10:46:53.425Z,13.92
2023-02-22T10:48:26.335Z,13.99
2023-02-22T10:50:00.730Z,14.07
2023-02-22T10:51:33.881Z,14.12
2023-02-22T10:53:05.588Z,14.24
2023-02-22T10:54:40.296Z,14.34
2023-02-22T10:56:14.662Z,14.45
2023-02-22T10:57:47.496Z,14.51
2023-02-22T10:59:29.400Z,14.49
2023-02-22T11:01:00.964Z,14.48
2023-02-22T11:02:33.336Z,14.46
2023-02-22T11:04:11.644Z,14.50
2023-02-22T11:05:43.809Z,14.48
2023-02-22T11:07:23.964Z,14.45
2023-02-22T11:09:04.715Z,14.45
2023-02-22T11:10:38.712Z,14.44
2023-02-22T11:12:11.571Z,14.48
2023-02-22T11:13:45.743Z,14.57
2023-02-22T11:15:25.915Z,14.60
2023-02-22T11:16:58.581Z,14.67
2023-02-22T11:18:32.264Z,14.79
2023-02-22T11:20:04.222Z,14.89
2023-02-22T11:21:36.098Z,14.94
2023-02-22T11:23:10.124Z,14.99
2023-02-22T11:24:49.238Z,15.04
2023-02-22T11:26:21.043Z,15.08
2023-02-22T11:27:54.029Z,15.13
2023-02-22T11:29:27.153Z,15.18
2023-02-22T11:31:08.539Z,15.28
2023-02-22T11:32:44.637Z,15.29
2023-02-22T11:34:40.129Z,15.33
2023-02-22T11:36:14.869Z,15.39
2023-02-22T11:37:46.705Z,15.48
2023-02-22T11:39:26.970Z,15.56
2023-02-22T11:41:07.953Z,15.65
2023-02-22T11:42:39.553Z,15.70
2023-02-22T11:44:21.148Z,15.71
2023-02-22T11:45:59.976Z,15.70
2023-02-22T11:47:32.642Z,15.66
2023-02-22T11:49:06.851Z,15.68
2023-02-22T11:50:46.516Z,15.76
2023-02-22T11:52:27.077Z,15.86
2023-02-22T11:54:05.002Z,15.93
2023-02-22T11:55:43.084Z,16.00
2023-02-22T11:57:22.093Z,16.02
2023-02-22T11:58:56.313Z,16.10
2023-02-22T12:00:33.432Z,16.16
2023-02-22T12:02:18.849Z,16.18
2023-02-22T12:04:05.293Z,16.19
2023-02-22T12:05:46.273Z,16.16
2023-02-22T12:07:23.863Z,16.19
2023-02-22T12:09:03.221Z,16.18
2023-02-22T12:10:45.885Z,16.15
2023-02-22T12:12:21.593Z,16.17
2023-02-22T12:13:59.581Z,16.18
2023-02-22T12:15:36.206Z,16.23
2023-02-22T12:17:14.536Z,16.25
2023-02-22T12:18:53.650Z,16.29
2023-02-22T12:20:27.460Z,16.41
2023-02-22T12:22:02.408Z,16.51
2023-02-22T12:23:40.633Z,16.60
2023-02-22T12:25:19.654Z,16.65
2023-02-22T12:26:55.430Z,16.66
2023-02-22T12:28:31.490Z,16.67
2023-02-22T12:30:04.903Z,16.70
2023-02-22T12:31:38.802Z,16.78
2023-02-22T12:33:13.980Z,16.79
2023-02-22T12:34:47.543Z,16.89
2023-02-22T12:36:20.893Z,16.94
2023-02-22T12:37:54.958Z,17.02
2023-02-22T12:39:50.705Z,17.12
2023-02-22T12:41:28.546Z,17.22
2023-02-22T12:43:05.385Z,17.23
2023-02-22T12:44:39.447Z,17.25
2023-02-22T12:46:13.528Z,17.32
2023-02-22T12:47:49.133Z,17.42
2023-02-22T12:49:26.187Z,17.52
2023-02-22T12:50:59.712Z,17.57
2023-02-22T12:52:40.130Z,17.64
2023-02-22T12:54:14.489Z,17.72
2023-02-22T12:55:49.511Z,17.77
2023-02-22T12:57:25.442Z,17.83
2023-02-22T12:59:02.916Z,17.91
2023-02-22T13:00:38.314Z,18.01
2023-02-22T13:02:14.470Z,18.13
2023-02-22T13:03:46.451Z,18.22
2023-02-22T13:05:18.583Z,18.27
2023-02-22T13:06:56.265Z,18.38
2023-02-22T13:08:32.721Z,18.50
2023-02-22T13:10:26.390Z,18.54
2023-02-22T13:12:00.990Z,18.54
2023-02-22T13:13:36.567Z,18.62
2023-02-22T13:15:14.619Z,18.66
2023-02-22T13:16:52.596Z,18.70
2023-02-22T13:18:28.825Z,18.77
2023-02-22T13:20:03.369Z,18.76
2023-02-22T13:21:41.885Z,18.78
2023-02-22T13:23:19.155Z,18.77
2023-02-22T13:24:58.537Z,18.74
2023-02-22T13:26:34.865Z,18.77
2023-02-22T13:28:16.960Z,18.85
2023-02-22T13:29:50.630Z,18.89
2023-02-22T13:31:31.050Z,18.89
2023-02-22T13:33:17.596Z,18.89
2023-02-22T13:34:59.473Z,18.94
2023-02-22T13:36:36.665Z,18.96
2023-02-22T13:38:23.440Z,18.95
2023-02-22T13:40:02.553Z,18.98
2023-02-22T13:41:42.920Z,19.07
2023-02-22T13:43:38.381Z,19.17
2023-02-22T13:45:23.742Z,19.34
2023-02-22T13:47:11.455Z,19.46
2023-02-22T13:48:52.852Z,19.60
2023-02-22T13:50:51.621Z,19.80
2023-02-22T13:52:25.270Z,19.98
2023-02-22T13:54:01.532Z,20.19
2023-02-22T13:55:34.523Z,20.41
2023-02-22T13:57:17.472Z,20.55
2023-02-22T13:58:51.104Z,20.66
2023-02-22T14:00:23.914Z,20.65
2023-02-22T14:01:56.155Z,20.53
2023-02-22T14:03:36.131Z,20.44
2023-02-22T14:05:27.542Z,20.41
2023-02-22T14:07:02.676Z,20.42
2023-02-22T14:08:41.974Z,20.33
2023-02-22T14:10:28.496Z,20.25
2023-02-22T14:12:00.056Z,20.18
2023-02-22T14:13:33.269Z,20.26
2023-02-22T14:15:28.297Z,20.35
2023-02-22T14:17:31.320Z,20.35
2023-02-22T14:19:06.378Z,20.26
2023-02-22T14:20:38.296Z,20.24
2023-02-22T14:22:28.117Z,20.18
2023-02-22T14:24:06.877Z,20.09
2023-02-22T14:25:40.201Z,20.00
2023-02-22T14:27:13.512Z,19.87
2023-02-22T14:28:51.345Z,19.71
2023-02-22T14:30:26.090Z,19.61
2023-02-22T14:32:06.410Z,19.54
2023-02-22T14:34:05.284Z,19.37
2023-02-22T14:35:49.365Z,19.28
2023-02-22T14:37:25.190Z,19.22
2023-02-22T14:39:01.802Z,19.19
2023-02-22T14:40:36.194Z,19.24
2023-02-22T14:42:10.405Z,19.26
2023-02-22T14:43:43.184Z,19.26
2023-02-22T14:45:17.647Z,19.27
2023-02-22T14:46:53.590Z,19.34
2023-02-22T14:48:28.479Z,19.28
2023-02-22T14:50:03.426Z,19.19
2023-02-22T14:51:41.439Z,19.09
2023-02-22T14:53:19.998Z,18.96
2023-02-22T14:54:59.175Z,18.98
2023-02-22T14:56:36.220Z,18.96
2023-02-22T14:58:10.258Z,18.93
2023-02-22T14:59:50.511Z,18.94
2023-02-22T15:01:31.232Z,18.84
2023-02-22T15:03:17.712Z,18.72
2023-02-22T15:04:52.820Z,18.60
2023-02-22T15:06:25.979Z,18.42
2023-02-22T15:07:59.532Z,18.33
2023-02-22T15:09:37.447Z,18.36
2023-02-22T15:11:19.630Z,18.40
2023-02-22T15:12:52.453Z,18.44
2023-02-22T15:14:26.812Z,18.48
2023-02-22T15:16:01.810Z,18.45
2023-02-22T15:17:33.769Z,18.39
2023-02-22T15:19:07.782Z,18.34
2023-02-22T15:20:42.603Z,18.26
2023-02-22T15:22:19.870Z,18.17
2023-02-22T15:23:54.515Z,18.11
2023-02-22T15:25:28.548Z,18.03
2023-02-22T15:27:05.848Z,17.87
2023-02-22T15:28:38.451Z,17.72
2023-02-22T15:30:17.037Z,17.59
2023-02-22T15:31:49.065Z,17.49
2023-02-22T15:33:24.653Z,17.43
2023-02-22T15:35:05.600Z,17.38
2023-02-22T15:36:37.242Z,17.34
2023-02-22T15:38:17.937Z,17.33
2023-02-22T15:39:49.515Z,17.35
2023-02-22T15:41:27.914Z,17.34
2023-02-22T15:43:00.877Z,17.34
2023-02-22T15:44:35.243Z,17.33
2023-02-22T15:46:07.385Z,17.28
2023-02-22T15:47:40.078Z,17.16
2023-02-22T15:49:19.442Z,16.97
2023-02-22T15:51:04.392Z,16.92
2023-02-22T15:52:36.138Z,16.82
2023-02-22T15:54:26.635Z,16.75
2023-02-22T15:56:00.722Z,16.70
2023-02-22T15:57:34.874Z,16.68
2023-02-22T15:59:10.964Z,16.69
2023-02-22T16:00:44.015Z,16.73
2023-02-22T16:02:21.239Z,16.69
2023-02-22T16:03:53.518Z,16.65
2023-02-22T16:05:32.235Z,16.65
2023-02-22T16:07:06.861Z,16.62
2023-02-22T16:08:53.951Z,16.56
2023-02-22T16:10:28.150Z,16.57
2023-02-22T16:12:10.432Z,16.57
2023-02-22T16:13:51.125Z,16.55
2023-02-22T16:15:22.726Z,16.51
2023-02-22T16:17:14.007Z,16.45
2023-02-22T16:18:47.712Z,16.46
2023-02-22T16:20:32.561Z,16.41
2023-02-22T16:22:10.170Z,16.38
2023-02-22T16:23:46.571Z,16.39
2023-02-22T16:25:27.195Z,16.36
2023-02-22T16:27:04.498Z,16.31
2023-02-22T16:28:36.149Z,16.29
2023-02-22T16:30:24.970Z,16.23
2023-02-22T16:31:57.112Z,16.24
2023-02-22T16:33:33.921Z,16.28
2023-02-22T16:35:05.958Z,16.32
2023-02-22T16:36:39.034Z,16.35
2023-02-22T16:38:16.900Z,16.32
2023-02-22T16:39:51.775Z,16.29
2023-02-22T16:41:23.346Z,16.24
2023-02-22T16:42:55.029Z,16.16
2023-02-22T16:44:27.232Z,16.09
2023-02-22T16:46:02.060Z,16.01
2023-02-22T16:47:34.631Z,15.91
2023-02-22T16:49:06.305Z,15.82
2023-02-22T16:50:37.861Z,15.77
2023-02-22T16:52:09.497Z,15.78
2023-02-22T16:53:41.026Z,15.77
2023-02-22T16:55:14.082Z,15.75
2023-02-22T16:56:45.622Z,15.77
2023-02-22T16:58:18.901Z,15.74
2023-02-22T16:59:52.964Z,15.72
2023-02-22T17:01:26.505Z,15.70
2023-02-22T17:02:58.316Z,15.69
2023-02-22T17:04:30.112Z,15.68
2023-02-22T17:06:01.692Z,15.67
2023-02-22T17:07:33.478Z,15.66
2023-02-22T17:09:05.046Z,15.61
2023-02-22T17:10:36.784Z,15.60
2023-02-22T17:12:09.588Z,15.60
2023-02-22T17:13:41.216Z,15.59
2023-02-22T17:15:18.393Z,15.61
2023-02-22T17:16:51.781Z,15.62
2023-02-22T17:18:24.590Z,15.63
2023-02-22T17:19:56.141Z,15.61
2023-02-22T17:21:27.787Z,15.62
2023-02-22T17:23:00.046Z,15.60
2023-02-22T17:24:33.931Z,15.56
2023-02-22T17:26:05.492Z,15.53
2023-02-22T17:27:36.974Z,15.52
2023-02-22T17:29:08.704Z,15.47
2023-02-22T17:30:41.336Z,15.43
2023-02-22T17:32:14.342Z,15.38
2023-02-22T17:33:47.988Z,15.34
2023-02-22T17:35:20.604Z,15.32
2023-02-22T17:36:52.202Z,15.27
2023-02-22T17:38:24.074Z,15.21
2023-02-22T17:39:55.856Z,15.13
2023-02-22T17:41:27.468Z,15.04
2023-02-22T17:42:59.240Z,14.99
2023-02-22T17:44:31.750Z,15.00
2023-02-22T17:46:07.825Z,14.96
2023-02-22T17:47:42.206Z,14.97
2023-02-22T17:49:13.696Z,14.95
2023-02-22T17:50:46.468Z,14.92
2023-02-22T17:52:18.024Z,14.84
2023-02-22T17:53:49.874Z,14.78
2023-02-22T17:55:22.184Z,14.76
2023-02-22T17:56:53.831Z,14.78
2023-02-22T17:58:30.904Z,14.86
2023-02-22T18:00:12.368Z,14.88
2023-02-22T18:01:48.173Z,14.92
2023-02-22T18:03:25.325Z,14.91
2023-02-22T18:04:57.279Z,14.92
2023-02-22T18:06:30.123Z,14.91
2023-02-22T18:08:01.828Z,14.90
2023-02-22T18:09:34.132Z,14.91
2023-02-22T18:11:06.085Z,14.89
2023-02-22T18:12:37.907Z,14.85
2023-02-22T18:14:10.848Z,14.84
2023-02-22T18:15:42.470Z,14.79
2023-02-22T18:17:14.081Z,14.74
2023-02-22T18:18:49.505Z,14.75
2023-02-22T18:20:31.050Z,14.72
2023-02-22T18:22:03.048Z,14.68
2023-02-22T18:23:34.940Z,14.61
2023-02-22T18:25:06.720Z,14.59
2023-02-22T18:26:39.047Z,14.55
2023-02-22T18:28:10.862Z,14.51
2023-02-22T18:29:42.425Z,14.46
2023-02-22T18:31:15.231Z,14.41
2023-02-22T18:32:46.937Z,14.34
2023-02-22T18:34:21.880Z,14.26
2023-02-22T18:35:53.443Z,14.18
2023-02-22T18:37:28.124Z,14.19
2023-02-22T18:38:59.665Z,14.17
2023-02-22T18:40:31.264Z,14.12
2023-02-22T18:42:02.847Z,14.06
2023-02-22T18:43:35.470Z,14.01
2023-02-22T18:45:07.889Z,13.95
2023-02-22T18:46:39.611Z,13.94
2023-02-22T18:48:11.303Z,13.93
2023-02-22T18:49:44.288Z,13.90
2023-02-22T18:51:19.998Z,13.89
2023-02-22T18:52:51.622Z,13.86
2023-02-22T18:54:23.217Z,13.84
2023-02-22T18:55:54.815Z,13.87
2023-02-22T18:57:26.477Z,13.85
2023-02-22T18:58:59.018Z,13.85
2023-02-22T19:00:34.010Z,13.83
2023-02-22T19:02:05.751Z,13.76
2023-02-22T19:03:38.156Z,13.70
2023-02-22T19:05:11.735Z,13.69
2023-02-22T19:06:45.246Z,13.68
2023-02-22T19:08:16.774Z,13.66
2023-02-22T19:09:51.783Z,13.59
2023-02-22T19:11:24.094Z,13.55
2023-02-22T19:12:55.617Z,13.51
2023-02-22T19:14:27.225Z,13.53
2023-02-22T19:16:00.906Z,13.60
2023-02-22T19:17:36.415Z,13.67
2023-02-22T19:19:07.973Z,13.73
2023-02-22T19:22:17.280Z,13.82
2023-02-22T19:23:49.162Z,13.85
2023-02-22T19:25:21.088Z,13.85
2023-02-22T19:26:57.295Z,13.81
2023-02-22T19:28:33.858Z,13.79
2023-02-22T19:30:06.153Z,13.83
2023-02-22T19:31:39.428Z,13.85
2023-02-22T19:33:11.894Z,13.85
2023-02-22T19:34:43.999Z,13.85
2023-02-22T19:36:17.815Z,13.85
2023-02-22T19:37:53.824Z,13.85
2023-02-22T19:39:26.920Z,13.86
2023-02-22T19:40:58.592Z,13.84
2023-02-22T19:42:30.139Z,13.83
2023-02-22T19:44:02.247Z,13.84
2023-02-22T19:45:33.820Z,13.81
2023-02-22T19:47:09.113Z,13.80
2023-02-22T19:48:41.217Z,13.82
2023-02-22T19:50:13.067Z,13.84
2023-02-22T19:51:45.965Z,13.84
2023-02-22T19:53:17.575Z,13.80
2023-02-22T19:54:49.842Z,13.75
2023-02-22T19:56:27.007Z,13.71
2023-02-22T19:57:58.753Z,13.73
2023-02-22T19:59:30.454Z,13.67
2023-02-22T20:01:02.064Z,13.68
2023-02-22T20:02:33.654Z,13.70
2023-02-22T20:04:06.521Z,13.68
2023-02-22T20:05:39.112Z,13.68
2023-02-22T20:07:12.004Z,13.66
2023-02-22T20:08:43.647Z,13.61
2023-02-22T20:10:15.362Z,13.54
2023-02-22T20:11:47.544Z,13.53
2023-02-22T20:13:19.096Z,13.51
2023-02-22T20:14:50.782Z,13.48
2023-02-22T20:16:22.681Z,13.45
2023-02-22T20:17:55.030Z,13.41
2023-02-22T20:19:27.283Z,13.40
2023-02-22T20:20:59.184Z,13.37
2023-02-22T20:22:32.141Z,13.32
2023-02-22T20:24:05.463Z,13.28
2023-02-22T20:25:37.802Z,13.27
2023-02-22T20:27:09.299Z,13.25
2023-02-22T20:28:41.258Z,13.24
2023-02-22T20:30:13.355Z,13.24
2023-02-22T20:31:49.224Z,13.30